Time;durP1;ratioP1;P1;durP2;ratioP2;P2;SDS_P1;SDS_P2;PMS_P1;PMS_P2;Temp;Humidity;BMP_temperature;BMP_pressure;BME280_temperature;BME280_humidity;BME280_pressure;Samples;Min_cycle;Max_cycle;Signal;HPM_P1;HPM_P2
2022/02/02 00:01:14;;;;;;;5.10;4.50;;;6.10;99.90;;;;;;4950121;29;20439;-65
2022/02/02 00:03:44;;;;;;;5.30;4.80;;;6.10;99.90;;;;;;4953691;29;20492;-65
2022/02/02 00:06:16;;;;;;;5.37;4.70;;;6.10;99.90;;;;;;4953712;28;20480;-65
2022/02/02 00:08:58;;;;;;;5.60;5.00;;;6.10;99.90;;;;;;4954220;28;20914;-65
2022/02/02 00:16:44;;;;;;;3.50;3.20;;;6.10;99.90;;;;;;4954020;28;20424;-65
2022/02/02 00:19:22;;;;;;;5.40;3.80;;;6.00;99.90;;;;;;4953848;28;20172;-65
2022/02/02 00:21:52;;;;;;;3.90;3.27;;;6.00;99.90;;;;;;4953671;28;20448;-65
2022/02/02 00:26:53;;;;;;;5.20;4.03;;;5.90;99.90;;;;;;4953415;28;20440;-65
2022/02/02 00:29:22;;;;;;;4.80;3.47;;;5.90;99.90;;;;;;4953648;29;20491;-65
2022/02/02 00:31:55;;;;;;;4.73;2.70;;;5.80;99.90;;;;;;4953374;29;20468;-65
2022/02/02 00:34:24;;;;;;;5.03;2.93;;;5.90;99.90;;;;;;4953594;29;20826;-65
2022/02/02 00:36:56;;;;;;;2.57;2.30;;;5.90;99.90;;;;;;4953312;28;20428;-65
2022/02/02 00:39:26;;;;;;;3.33;2.50;;;5.90;99.90;;;;;;4953543;29;20428;-65
2022/02/02 00:41:54;;;;;;;2.50;2.30;;;5.80;99.90;;;;;;4953559;29;20483;-65
2022/02/02 00:44:20;;;;;;;4.33;2.20;;;5.80;99.90;;;;;;4953679;28;20835;-65
2022/02/02 00:46:46;;;;;;;4.20;1.73;;;5.70;99.90;;;;;;4953279;29;20432;-65
2022/02/02 00:49:13;;;;;;;3.67;2.57;;;5.70;99.90;;;;;;4953366;29;20491;-65
2022/02/02 00:51:44;;;;;;;3.20;2.37;;;5.70;99.90;;;;;;4938320;29;20551;-65
2022/02/02 00:54:12;;;;;;;1.80;1.57;;;5.70;99.90;;;;;;4953326;28;20515;-65
2022/02/02 00:56:37;;;;;;;3.97;2.20;;;5.70;99.90;;;;;;4953585;29;20845;-65
2022/02/02 00:59:03;;;;;;;11.60;2.97;;;5.70;99.90;;;;;;4953426;28;20439;-65
2022/02/02 01:01:29;;;;;;;2.73;2.23;;;5.80;99.90;;;;;;4953194;29;20256;-65
2022/02/02 01:03:55;;;;;;;2.57;2.37;;;5.80;99.90;;;;;;4953180;28;20247;-65
2022/02/02 01:06:22;;;;;;;2.70;2.50;;;5.80;99.90;;;;;;4952927;28;20180;-65
2022/02/02 01:11:53;;;;;;;10.43;3.80;;;5.80;99.90;;;;;;4916436;29;20493;-65
2022/02/02 01:19:39;;;;;;;5.20;2.77;;;5.90;99.90;;;;;;4956718;29;20243;-65
2022/02/02 01:27:49;;;;;;;4.63;2.47;;;6.00;99.90;;;;;;4956579;29;20491;-65
2022/02/02 01:30:11;;;;;;;3.00;2.20;;;6.10;99.90;;;;;;4956635;29;20483;-65
2022/02/02 01:32:37;;;;;;;10.33;2.10;;;6.20;99.90;;;;;;4956467;28;20839;-65
2022/02/02 01:35:06;;;;;;;3.10;2.37;;;6.20;99.90;;;;;;4956577;28;20432;-65
2022/02/02 01:37:34;;;;;;;5.23;2.80;;;6.20;99.90;;;;;;4956642;29;20491;-66
2022/02/02 01:40:06;;;;;;;8.40;2.47;;;6.30;99.90;;;;;;4956876;28;20436;-65
2022/02/02 01:42:41;;;;;;;6.20;2.10;;;6.30;99.90;;;;;;4956176;28;20510;-66
2022/02/02 01:45:19;;;;;;;2.53;2.20;;;6.40;99.90;;;;;;4956468;28;20490;-65
2022/02/02 01:48:02;;;;;;;9.57;2.57;;;6.40;99.90;;;;;;4956313;28;20436;-65
2022/02/02 01:50:40;;;;;;;4.43;1.87;;;6.40;99.90;;;;;;4956514;28;20475;-65
2022/02/02 01:53:14;;;;;;;3.57;2.30;;;6.40;99.90;;;;;;4956295;28;20523;-65
2022/02/02 01:55:40;;;;;;;3.00;1.73;;;6.50;99.90;;;;;;4956338;28;20467;-64
2022/02/02 01:58:32;;;;;;;4.10;2.07;;;6.60;99.90;;;;;;4956188;28;20922;-63
2022/02/02 02:00:58;;;;;;;2.70;2.33;;;6.60;99.90;;;;;;4956145;28;20212;-65
2022/02/02 02:03:23;;;;;;;4.50;2.40;;;6.60;99.90;;;;;;4956197;29;20468;-65
2022/02/02 02:05:49;;;;;;;6.47;2.40;;;6.60;99.90;;;;;;4955871;29;20181;-65
2022/02/02 02:08:15;;;;;;;3.63;2.43;;;6.70;99.90;;;;;;4956028;28;20185;-66
2022/02/02 02:10:41;;;;;;;5.30;2.50;;;6.70;99.90;;;;;;4956125;29;20176;-65
2022/02/02 02:13:12;;;;;;;5.90;2.13;;;6.70;99.90;;;;;;4955879;29;20881;-64
2022/02/02 02:15:40;;;;;;;6.00;2.43;;;6.70;99.90;;;;;;4955803;29;20165;-63
2022/02/02 02:18:06;;;;;;;6.17;3.00;;;6.70;99.90;;;;;;4955217;28;20492;-63
2022/02/02 02:20:32;;;;;;;5.90;2.90;;;6.70;99.90;;;;;;4955874;28;20519;-63
2022/02/02 02:22:58;;;;;;;9.00;4.47;;;6.80;99.90;;;;;;4955756;28;20205;-66
2022/02/02 02:25:27;;;;;;;7.87;3.40;;;6.80;99.90;;;;;;4955427;29;20532;-63
2022/02/02 02:28:02;;;;;;;8.70;4.63;;;6.80;99.90;;;;;;4955656;29;20180;-63
2022/02/02 02:30:53;;;;;;;9.00;4.77;;;6.80;99.90;;;;;;4955524;28;20495;-66
2022/02/02 02:36:34;;;;;;;9.10;4.87;;;6.90;99.90;;;;;;4955710;29;20797;-65
2022/02/02 03:01:09;;;;;;;9.70;4.80;;;7.00;99.90;;;;;;4932697;28;20446;-65
2022/02/02 03:30:14;;;;;;;12.30;4.50;;;7.00;99.90;;;;;;4953768;28;20463;-65
2022/02/02 03:34:41;;;;;;;12.63;3.50;;;7.00;99.90;;;;;;4954005;28;20631;-65
2022/02/02 03:52:40;;;;;;;8.77;3.03;;;6.90;99.90;;;;;;4954356;29;20607;-66
2022/02/02 03:54:59;;;;;;;8.33;3.97;;;7.00;99.90;;;;;;4953805;29;20460;-66
2022/02/02 04:00:22;;;;;;;6.73;3.30;;;6.90;99.90;;;;;;4954421;29;20515;-66
2022/02/02 04:08:06;;;;;;;10.47;3.63;;;6.80;99.90;;;;;;4954117;28;20436;-66
2022/02/02 04:10:32;;;;;;;5.57;3.60;;;6.90;99.90;;;;;;4953928;28;20428;-65
2022/02/02 04:13:13;;;;;;;10.57;3.83;;;6.90;99.90;;;;;;4953619;29;20459;-66
2022/02/02 04:37:42;;;;;;;14.53;3.90;;;6.90;99.90;;;;;;4953385;29;20436;-65
2022/02/02 04:54:25;;;;;;;9.97;4.73;;;6.80;99.90;;;;;;4953616;28;20448;-66
2022/02/02 04:57:27;;;;;;;10.17;4.23;;;6.80;99.90;;;;;;4953241;29;20440;-66
2022/02/02 05:00:20;;;;;;;17.50;5.00;;;6.80;99.90;;;;;;4953247;29;20542;-66
2022/02/02 05:11:12;;;;;;;7.30;5.70;;;6.60;99.90;;;;;;4953100;29;20451;-66
2022/02/02 05:43:11;;;;;;;9.43;3.30;;;6.40;99.90;;;;;;4937862;29;21037;-66
2022/02/02 05:53:26;;;;;;;8.60;3.20;;;6.50;99.90;;;;;;4953660;28;20594;-66
2022/02/02 05:55:52;;;;;;;10.70;3.70;;;6.40;99.90;;;;;;4956083;29;20440;-66
2022/02/02 05:58:25;;;;;;;13.10;3.83;;;6.50;99.90;;;;;;4956377;28;20428;-66
2022/02/02 06:00:54;;;;;;;7.43;3.10;;;6.50;99.90;;;;;;4955839;28;20660;-66
2022/02/02 06:03:45;;;;;;;11.93;3.70;;;6.50;99.90;;;;;;4956163;28;20464;-66
2022/02/02 06:06:12;;;;;;;7.40;4.10;;;6.60;99.90;;;;;;4956015;28;20454;-66
2022/02/02 06:08:45;;;;;;;9.57;3.30;;;6.70;99.90;;;;;;4955929;28;20439;-66
2022/02/02 06:11:12;;;;;;;8.20;3.40;;;6.60;99.90;;;;;;4955879;29;20518;-66
2022/02/02 06:13:43;;;;;;;16.50;4.23;;;6.60;99.90;;;;;;4955914;28;20459;-67
2022/02/02 06:16:09;;;;;;;9.73;3.30;;;6.70;99.90;;;;;;4955705;28;20428;-66
2022/02/02 06:18:36;;;;;;;8.87;3.80;;;6.70;99.90;;;;;;4956041;29;20428;-66
2022/02/02 06:21:05;;;;;;;8.53;3.37;;;6.70;99.90;;;;;;4955654;29;20441;-66
2022/02/02 06:23:38;;;;;;;8.97;2.97;;;6.80;99.90;;;;;;4955658;29;21006;-66
2022/02/02 06:26:08;;;;;;;12.83;3.63;;;6.70;99.90;;;;;;4955569;28;20492;-66
2022/02/02 06:28:35;;;;;;;12.33;4.13;;;6.80;99.90;;;;;;4955866;29;20443;-66
2022/02/02 06:31:03;;;;;;;6.97;3.30;;;6.80;99.90;;;;;;4955291;29;20460;-66
2022/02/02 06:33:37;;;;;;;13.70;4.57;;;6.80;99.90;;;;;;4955476;28;20866;-66
2022/02/02 06:36:06;;;;;;;13.03;3.53;;;6.80;99.90;;;;;;4955547;28;20533;-66
2022/02/02 06:38:32;;;;;;;14.03;6.07;;;6.80;99.90;;;;;;4955731;28;20421;-66
2022/02/02 06:41:00;;;;;;;8.30;3.67;;;6.80;99.90;;;;;;4955807;28;20429;-66
2022/02/02 06:43:27;;;;;;;7.37;3.33;;;6.80;99.90;;;;;;4955620;28;20448;-66
2022/02/02 06:45:55;;;;;;;11.40;3.60;;;6.80;99.90;;;;;;4955332;28;20412;-66
2022/02/02 06:48:20;;;;;;;13.13;4.37;;;6.80;99.90;;;;;;4955530;28;20436;-66
2022/02/02 06:50:55;;;;;;;9.17;4.50;;;6.80;99.90;;;;;;4955414;28;20661;-66
2022/02/02 06:53:29;;;;;;;9.80;3.90;;;6.80;99.90;;;;;;4971660;28;20215;-66
2022/02/02 06:56:05;;;;;;;7.63;3.80;;;6.80;99.90;;;;;;4974153;28;20995;-66
2022/02/02 07:04:15;;;;;;;11.43;4.10;;;6.80;99.90;;;;;;4954761;28;20868;-65
2022/02/02 07:06:57;;;;;;;11.87;3.53;;;6.90;99.90;;;;;;4960730;28;20467;-66
2022/02/02 07:12:49;;;;;;;7.63;3.90;;;6.90;99.90;;;;;;4971358;28;20505;-65
2022/02/02 07:15:45;;;;;;;11.50;4.50;;;6.90;99.90;;;;;;4960584;28;20981;-65
2022/02/02 07:18:31;;;;;;;6.57;3.83;;;6.90;99.90;;;;;;4954468;28;20528;-65
2022/02/02 07:21:16;;;;;;;6.20;3.43;;;6.90;99.90;;;;;;4959754;28;20821;-65
2022/02/02 07:23:58;;;;;;;11.70;4.40;;;6.90;99.90;;;;;;4958368;28;20459;-66
2022/02/02 07:26:50;;;;;;;12.47;4.90;;;7.00;99.90;;;;;;4954253;29;20432;-66
2022/02/02 07:32:26;;;;;;;7.90;3.73;;;7.00;99.90;;;;;;4954403;29;21012;-66
2022/02/02 07:37:30;;;;;;;10.77;4.17;;;7.10;99.90;;;;;;4952457;28;20483;-66
2022/02/02 07:39:59;;;;;;;9.43;4.87;;;7.00;99.90;;;;;;4953660;29;20447;-66
2022/02/02 07:42:26;;;;;;;7.07;3.90;;;7.00;99.90;;;;;;4953427;29;20503;-66
2022/02/02 07:44:58;;;;;;;12.97;5.33;;;7.00;99.90;;;;;;4953677;28;20440;-66
2022/02/02 07:47:26;;;;;;;9.47;3.73;;;7.00;99.90;;;;;;4952884;29;20444;-66
2022/02/02 07:49:55;;;;;;;11.50;4.33;;;7.10;99.90;;;;;;4953443;28;20806;-66
2022/02/02 07:52:21;;;;;;;12.57;4.23;;;7.10;99.90;;;;;;4952841;29;20504;-65
2022/02/02 07:54:50;;;;;;;9.10;5.13;;;7.10;99.90;;;;;;4952704;28;20451;-66
2022/02/02 07:57:20;;;;;;;10.87;4.73;;;7.10;99.90;;;;;;4953801;28;20436;-66
2022/02/02 07:59:54;;;;;;;12.40;4.60;;;7.00;99.90;;;;;;4953448;28;20892;-66
2022/02/02 08:02:25;;;;;;;12.00;5.10;;;7.00;99.90;;;;;;4935293;28;20466;-67
2022/02/02 08:04:51;;;;;;;19.83;6.00;;;7.00;99.90;;;;;;4932279;29;20459;-67
2022/02/02 08:07:24;;;;;;;17.83;4.43;;;7.00;99.90;;;;;;4953372;29;20532;-66
2022/02/02 08:10:04;;;;;;;10.73;4.40;;;7.00;99.90;;;;;;4953740;29;20199;-67
2022/02/02 08:12:33;;;;;;;11.50;5.40;;;7.00;99.90;;;;;;4949875;28;21053;-66
2022/02/02 08:14:59;;;;;;;13.97;6.80;;;7.10;99.90;;;;;;4953323;28;20459;-66
2022/02/02 08:17:24;;;;;;;9.80;3.90;;;7.10;99.90;;;;;;4952801;28;20464;-66
2022/02/02 08:19:52;;;;;;;11.50;4.80;;;7.10;99.90;;;;;;4946206;28;20182;-66
2022/02/02 08:22:18;;;;;;;14.20;4.23;;;7.20;99.90;;;;;;4946658;28;20181;-65
2022/02/02 08:24:43;;;;;;;10.30;5.57;;;7.20;99.90;;;;;;4947868;29;20523;-66
2022/02/02 08:27:09;;;;;;;9.23;4.43;;;7.20;99.90;;;;;;4949782;29;20181;-65
2022/02/02 08:29:34;;;;;;;11.30;4.40;;;7.10;99.90;;;;;;4950130;29;20436;-65
2022/02/02 08:32:02;;;;;;;13.27;5.27;;;7.10;99.90;;;;;;4946671;28;20208;-65
2022/02/02 08:34:28;;;;;;;9.67;4.13;;;7.10;99.90;;;;;;4949450;29;20200;-66
2022/02/02 08:36:56;;;;;;;13.63;4.47;;;7.10;99.90;;;;;;4949699;28;20432;-65
2022/02/02 08:39:38;;;;;;;15.50;8.83;;;7.00;99.90;;;;;;4950372;28;20862;-66
2022/02/02 08:42:06;;;;;;;13.20;5.07;;;7.00;99.90;;;;;;4946505;29;20990;-65
2022/02/02 08:44:44;;;;;;;17.13;4.63;;;6.90;99.90;;;;;;4949969;28;20884;-64
2022/02/02 08:47:13;;;;;;;11.10;4.90;;;6.90;99.90;;;;;;4949613;28;20444;-64
2022/02/02 08:49:46;;;;;;;13.83;4.73;;;6.80;99.90;;;;;;4949790;28;20528;-65
2022/02/02 08:52:13;;;;;;;8.80;4.27;;;6.70;99.90;;;;;;4946774;28;20469;-66
2022/02/02 08:54:45;;;;;;;10.90;4.70;;;6.80;99.90;;;;;;4949970;28;20456;-66
2022/02/02 08:57:42;;;;;;;9.90;4.97;;;6.80;99.90;;;;;;4949458;28;20483;-65
2022/02/02 09:00:13;;;;;;;12.83;4.57;;;6.90;99.90;;;;;;4949754;28;20454;-66
2022/02/02 09:02:52;;;;;;;14.47;5.20;;;7.00;99.90;;;;;;4946297;28;20611;-66
2022/02/02 09:05:24;;;;;;;7.47;4.40;;;7.10;99.90;;;;;;4949658;28;20974;-65
2022/02/02 09:07:50;;;;;;;12.17;5.40;;;7.20;99.90;;;;;;4949835;28;20451;-65
2022/02/02 09:10:24;;;;;;;7.10;3.87;;;7.20;99.90;;;;;;4949871;29;20875;-65
2022/02/02 09:32:12;;;;;;;17.87;4.70;;;7.90;99.90;;;;;;4949701;29;20468;-65
2022/02/02 09:34:35;;;;;;;10.47;4.80;;;8.10;99.90;;;;;;4951560;29;20455;-66
2022/02/02 09:37:00;;;;;;;12.37;4.63;;;8.10;99.90;;;;;;4952213;28;20436;-66
2022/02/02 09:39:33;;;;;;;8.93;6.33;;;8.00;99.90;;;;;;4952890;29;20185;-65
2022/02/02 09:42:06;;;;;;;16.90;4.97;;;8.10;99.90;;;;;;4949854;28;20188;-65
2022/02/02 09:44:37;;;;;;;19.60;6.13;;;8.10;99.90;;;;;;4952747;28;20460;-65
2022/02/02 09:49:55;;;;;;;10.37;4.03;;;7.80;99.90;;;;;;4952269;29;20440;-65
2022/02/02 09:52:23;;;;;;;16.50;5.83;;;7.70;99.90;;;;;;4948063;29;20559;-65
2022/02/02 10:05:02;;;;;;;11.47;5.70;;;8.10;99.90;;;;;;4955939;29;20185;-74
2022/02/02 10:15:23;;;;;;;12.27;4.87;;;8.50;99.90;;;;;;4955227;29;20950;-65
2022/02/02 10:18:16;;;;;;;14.80;5.93;;;8.50;99.90;;;;;;4955063;29;20455;-64
2022/02/02 10:20:42;;;;;;;11.50;4.20;;;8.30;99.90;;;;;;4946130;29;20814;-65
2022/02/02 10:23:08;;;;;;;15.57;5.43;;;7.80;99.90;;;;;;4952501;28;20452;-65
2022/02/02 10:25:40;;;;;;;11.90;4.67;;;7.50;99.90;;;;;;4955087;29;20431;-65
2022/02/02 10:28:08;;;;;;;12.57;6.20;;;7.30;99.90;;;;;;4955359;29;20439;-65
2022/02/02 10:30:35;;;;;;;14.17;5.40;;;7.20;99.90;;;;;;4948642;29;20428;-65
2022/02/02 10:33:02;;;;;;;11.87;6.00;;;7.20;99.90;;;;;;4951757;29;20460;-65
2022/02/02 10:35:37;;;;;;;16.20;5.37;;;7.10;99.90;;;;;;4953063;29;20531;-65
2022/02/02 10:38:08;;;;;;;9.30;4.93;;;7.10;99.90;;;;;;4951656;29;20424;-65
2022/02/02 10:41:04;;;;;;;14.07;5.60;;;7.20;99.90;;;;;;4954122;28;20443;-65
2022/02/02 10:43:38;;;;;;;11.00;4.60;;;7.40;99.90;;;;;;4951672;28;21062;-65
2022/02/02 10:46:17;;;;;;;29.83;13.67;;;8.00;99.90;;;;;;4954372;29;20436;-65
2022/02/02 10:48:49;;;;;;;9.83;5.07;;;8.70;99.90;;;;;;4954844;29;20435;-66
2022/02/02 10:51:29;;;;;;;17.73;7.80;;;9.90;99.90;;;;;;4953548;28;20483;-66
2022/02/02 10:54:15;;;;;;;13.63;5.63;;;11.00;99.90;;;;;;4953874;29;20448;-65
2022/02/02 10:57:02;;;;;;;9.43;4.40;;;12.10;99.90;;;;;;4945131;29;20452;-65
2022/02/02 11:07:16;;;;;;;11.93;5.20;;;11.00;99.90;;;;;;4954452;29;20507;-65
2022/02/02 11:09:45;;;;;;;16.17;5.33;;;10.30;99.90;;;;;;4953945;28;20440;-66
2022/02/02 11:12:12;;;;;;;10.40;5.43;;;9.90;99.90;;;;;;4950409;28;20460;-65
2022/02/02 11:14:52;;;;;;;10.50;4.63;;;9.60;99.90;;;;;;4945939;29;20539;-65
2022/02/02 11:17:29;;;;;;;17.13;5.53;;;9.60;99.90;;;;;;4952869;29;20433;-65
2022/02/02 11:20:01;;;;;;;13.43;4.13;;;9.30;99.90;;;;;;4953481;29;20448;-65
2022/02/02 11:22:31;;;;;;;12.77;6.13;;;9.30;99.90;;;;;;4950146;29;20491;-65
2022/02/02 11:25:22;;;;;;;11.87;5.50;;;9.50;99.90;;;;;;4953932;29;20443;-65
2022/02/02 11:27:50;;;;;;;19.17;5.47;;;10.00;99.90;;;;;;4951182;29;20463;-66
2022/02/02 11:30:24;;;;;;;16.63;6.03;;;9.80;99.90;;;;;;4954388;29;20487;-65
2022/02/02 11:32:58;;;;;;;17.00;6.80;;;9.10;99.90;;;;;;4950422;29;20550;-66
2022/02/02 11:35:46;;;;;;;11.90;3.90;;;9.20;99.90;;;;;;4953627;29;20529;-66
2022/02/02 11:38:32;;;;;;;6.17;3.93;;;12.20;99.90;;;;;;4953265;28;20515;-66
2022/02/02 11:41:04;;;;;;;13.17;4.27;;;14.40;99.90;;;;;;4953414;29;20447;-63
2022/02/02 11:46:48;;;;;;;6.60;3.40;;;13.20;99.90;;;;;;4953168;28;20500;-65
2022/02/02 11:49:21;;;;;;;11.30;3.93;;;12.00;99.90;;;;;;4951515;28;20443;-64
2022/02/02 11:51:58;;;;;;;9.77;5.07;;;11.50;99.90;;;;;;4949514;28;20950;-65
2022/02/02 11:54:42;;;;;;;7.47;3.53;;;11.60;99.90;;;;;;4954293;28;20447;-65
2022/02/02 11:57:20;;;;;;;13.47;4.03;;;11.80;99.90;;;;;;4953416;28;20429;-64
2022/02/02 12:00:10;;;;;;;11.73;5.50;;;11.50;99.90;;;;;;4953370;29;21012;-64
2022/02/02 12:07:55;;;;;;;8.93;4.50;;;14.50;99.90;;;;;;4953114;28;20463;-64
2022/02/02 12:47:09;;;;;;;11.80;3.93;;;10.20;99.90;;;;;;4952141;29;20487;-64
2022/02/02 13:00:22;;;;;;;9.83;4.43;;;14.70;99.90;;;;;;4952178;28;20441;-64
2022/02/02 13:02:48;;;;;;;8.27;4.00;;;17.90;99.90;;;;;;4947420;28;20494;-64
2022/02/02 13:05:14;;;;;;;5.90;3.07;;;19.40;94.70;;;;;;4955512;29;20481;-64
2022/02/02 13:07:41;;;;;;;9.70;3.23;;;17.40;93.60;;;;;;4956584;29;20584;-64
2022/02/02 13:10:09;;;;;;;6.60;3.50;;;15.60;97.80;;;;;;4956075;28;20462;-64
2022/02/02 13:12:40;;;;;;;7.47;3.90;;;14.10;99.90;;;;;;4951022;29;20459;-64
2022/02/02 13:17:56;;;;;;;8.40;4.13;;;11.60;99.90;;;;;;4956725;29;20463;-64
2022/02/02 13:20:34;;;;;;;9.20;3.77;;;10.90;99.90;;;;;;4955882;29;20467;-64
2022/02/02 13:23:32;;;;;;;5.43;3.63;;;10.30;99.90;;;;;;4952100;28;21016;-64
2022/02/02 13:26:03;;;;;;;18.37;6.73;;;9.90;99.90;;;;;;4956375;28;20532;-64
2022/02/02 13:29:15;;;;;;;15.47;7.73;;;9.40;99.90;;;;;;4956318;29;20946;-64
2022/02/02 13:31:46;;;;;;;11.53;6.97;;;9.10;99.90;;;;;;4943044;28;20464;-63
2022/02/02 14:09:07;;;;;;;4.73;3.00;;;8.10;99.90;;;;;;4952561;28;20432;-63
2022/02/02 14:33:17;;;;;;;14.30;4.47;;;8.30;99.90;;;;;;4949455;29;20888;-63
2022/02/02 14:35:47;;;;;;;5.23;3.70;;;8.50;99.90;;;;;;4951658;29;20435;-64
2022/02/02 14:38:14;;;;;;;8.70;4.40;;;8.60;99.90;;;;;;4951909;28;20628;-64
2022/02/02 14:43:20;;;;;;;8.13;3.33;;;8.20;99.90;;;;;;4948185;28;20444;-62
2022/02/02 14:45:51;;;;;;;5.50;3.97;;;8.20;99.90;;;;;;4953504;28;20476;-65
2022/02/02 14:48:31;;;;;;;11.03;4.70;;;8.30;99.90;;;;;;4955316;28;20425;-64
2022/02/02 15:05:13;;;;;;;11.53;4.00;;;8.20;99.90;;;;;;4954672;28;20440;-64
2022/02/02 15:29:04;;;;;;;9.27;3.80;;;8.00;99.90;;;;;;4954393;28;20490;-65
2022/02/02 15:31:31;;;;;;;10.13;4.37;;;8.10;99.90;;;;;;4951732;28;20953;-65
2022/02/02 15:33:58;;;;;;;6.20;3.87;;;8.00;99.90;;;;;;4952202;29;20954;-65
2022/02/02 15:38:54;;;;;;;6.00;3.20;;;7.90;99.90;;;;;;4953802;28;20444;-66
2022/02/02 15:41:27;;;;;;;6.30;4.50;;;7.90;99.90;;;;;;4952736;28;20981;-65
2022/02/02 15:56:11;;;;;;;5.00;3.60;;;7.70;99.90;;;;;;5038782;28;21176;-65
2022/02/02 16:01:20;;;;;;;32.43;21.00;;;7.50;99.90;;;;;;5043002;28;20788;-64
2022/02/02 16:03:32;;;;;;;5.10;4.43;;;7.40;99.90;;;;;;5028051;28;20499;-65
2022/02/02 16:06:04;;;;;;;8.73;4.13;;;7.50;99.90;;;;;;5030361;28;20424;-65
2022/02/02 16:08:30;;;;;;;9.20;4.17;;;7.50;99.90;;;;;;5028967;28;20839;-62
2022/02/02 16:13:41;;;;;;;4.90;3.20;;;7.50;99.90;;;;;;5036904;28;20448;-65
2022/02/02 16:16:36;;;;;;;5.77;2.87;;;7.40;99.90;;;;;;5027250;28;20173;-65
2022/02/02 16:19:17;;;;;;;4.30;2.90;;;7.50;99.90;;;;;;5040183;28;20520;-65
2022/02/02 16:35:39;;;;;;;6.23;3.47;;;7.70;99.90;;;;;;5036077;28;20436;-65
2022/02/02 16:38:07;;;;;;;11.07;3.80;;;7.70;99.90;;;;;;5037570;28;20523;-66
2022/02/02 16:40:34;;;;;;;5.47;3.57;;;7.60;99.90;;;;;;5037085;28;20956;-65
2022/02/02 16:43:14;;;;;;;5.57;2.93;;;7.70;99.90;;;;;;5026915;28;20595;-66
2022/02/02 16:45:46;;;;;;;9.20;3.70;;;7.80;99.90;;;;;;5039464;28;20486;-65
2022/02/02 16:48:12;;;;;;;5.10;3.10;;;7.70;99.90;;;;;;5031523;28;20529;-71
2022/02/02 16:50:41;;;;;;;6.93;3.60;;;7.60;99.90;;;;;;5036618;28;20923;-65
2022/02/02 16:53:26;;;;;;;8.00;3.03;;;7.60;99.90;;;;;;5033671;28;20665;-66
2022/02/02 16:56:07;;;;;;;9.67;3.03;;;7.60;99.90;;;;;;5031945;28;20432;-66
2022/02/02 17:33:43;;;;;;;5.70;4.93;;;7.20;99.90;;;;;;5016986;28;20532;-66
2022/02/02 17:36:21;;;;;;;7.53;3.20;;;7.10;99.90;;;;;;5031093;28;20774;-66
2022/02/02 17:38:57;;;;;;;8.50;2.87;;;7.10;99.90;;;;;;5022752;28;20520;-64
2022/02/02 17:41:52;;;;;;;4.60;3.90;;;7.00;99.90;;;;;;5015651;28;20464;-65
2022/02/02 17:44:39;;;;;;;6.37;3.07;;;6.90;99.90;;;;;;5012541;28;20461;-65
2022/02/02 18:12:23;;;;;;;4.67;3.97;;;6.70;99.90;;;;;;5011402;28;20312;-66
2022/02/02 18:15:17;;;;;;;5.30;4.10;;;6.80;99.90;;;;;;5024346;28;20451;-66
2022/02/02 18:19:51;;;;;;;6.60;5.33;;;6.80;99.90;;;;;;5017090;28;20441;-66
2022/02/02 18:22:18;;;;;;;10.93;5.00;;;6.80;99.90;;;;;;5014846;28;21021;-65
2022/02/02 18:24:58;;;;;;;9.33;6.30;;;6.80;99.90;;;;;;5011296;28;20438;-65
2022/02/02 18:27:33;;;;;;;6.43;5.13;;;6.80;99.90;;;;;;5011807;28;20434;-65
2022/02/02 18:30:31;;;;;;;7.53;5.63;;;6.70;99.90;;;;;;5018022;28;20432;-65
2022/02/02 18:33:00;;;;;;;7.97;6.20;;;6.70;99.90;;;;;;5028657;28;20457;-65
2022/02/02 18:35:31;;;;;;;9.33;6.50;;;6.70;99.90;;;;;;5018503;28;20455;-66
2022/02/02 18:44:05;;;;;;;6.43;5.83;;;6.50;99.90;;;;;;5009999;28;21025;-65
2022/02/02 18:46:50;;;;;;;10.07;5.43;;;6.50;99.90;;;;;;5022517;28;20443;-65
2022/02/02 18:52:07;;;;;;;5.97;4.57;;;6.40;99.90;;;;;;5011852;28;20442;-65
2022/02/02 18:54:38;;;;;;;6.50;5.47;;;6.40;99.90;;;;;;5017712;28;20195;-65
2022/02/02 18:57:16;;;;;;;5.97;4.80;;;6.40;99.90;;;;;;5013065;28;20437;-65
2022/02/02 19:05:18;;;;;;;10.07;7.07;;;6.50;99.90;;;;;;5012158;28;20433;-64
2022/02/02 19:37:24;;;;;;;7.43;6.73;;;6.10;99.90;;;;;;5029441;28;20444;-64
2022/02/02 20:04:44;;;;;;;9.30;8.40;;;6.20;99.90;;;;;;5012827;28;20476;-64
2022/02/02 20:10:14;;;;;;;10.57;9.47;;;6.20;99.90;;;;;;5016263;28;20425;-64
2022/02/02 20:12:41;;;;;;;11.73;10.03;;;6.30;99.90;;;;;;5011236;28;20467;-65
2022/02/02 20:15:13;;;;;;;11.60;9.93;;;6.30;99.90;;;;;;5012177;28;20440;-64
2022/02/02 20:17:39;;;;;;;9.80;8.80;;;6.20;99.90;;;;;;5012896;28;20445;-63
2022/02/02 20:20:15;;;;;;;9.37;8.47;;;6.20;99.90;;;;;;5021195;28;20503;-64
2022/02/02 20:22:42;;;;;;;10.33;8.60;;;6.10;99.90;;;;;;5024186;28;20287;-64
2022/02/02 20:25:09;;;;;;;10.83;8.10;;;6.10;99.90;;;;;;5020547;28;20508;-64
2022/02/02 20:27:36;;;;;;;10.47;7.20;;;6.10;99.90;;;;;;5011492;28;20462;-65
2022/02/02 20:30:05;;;;;;;9.87;7.70;;;6.10;99.90;;;;;;5012082;28;20449;-65
2022/02/02 20:32:30;;;;;;;8.07;7.03;;;6.10;99.90;;;;;;5008816;28;20441;-63
2022/02/02 20:34:56;;;;;;;7.90;6.47;;;6.20;99.90;;;;;;5023351;28;20938;-63
2022/02/02 20:37:22;;;;;;;8.90;6.47;;;6.20;99.90;;;;;;5030300;28;20186;-63
2022/02/02 20:39:56;;;;;;;7.03;6.33;;;6.30;99.90;;;;;;5024910;28;20174;-64
2022/02/02 20:42:53;;;;;;;12.43;8.10;;;6.40;99.90;;;;;;5019652;28;20178;-63
2022/02/02 21:07:05;;;;;;;6.93;6.33;;;7.10;99.90;;;;;;5000427;28;20444;-63
2022/02/02 21:13:41;;;;;;;7.90;6.67;;;7.20;99.90;;;;;;5012013;28;20839;-61
2022/02/02 21:14:49;;;;;;;10.23;7.10;;;7.10;99.90;;;;;;5019630;28;20266;-61
2022/02/02 21:17:24;;;;;;;8.07;7.23;;;7.10;99.90;;;;;;5019653;28;20413;-61
2022/02/02 21:20:08;;;;;;;8.10;7.23;;;7.10;99.90;;;;;;5020188;28;20426;-62
2022/02/02 21:22:45;;;;;;;10.20;8.50;;;7.10;99.90;;;;;;5021320;28;20938;-60
2022/02/02 21:27:57;;;;;;;9.03;8.10;;;7.00;99.90;;;;;;4994118;28;21024;-63
2022/02/02 21:30:23;;;;;;;15.80;7.73;;;7.00;99.90;;;;;;5008198;28;21128;-61
2022/02/02 21:32:50;;;;;;;10.20;9.20;;;7.00;99.90;;;;;;5020369;28;20445;-61
2022/02/02 21:35:17;;;;;;;12.00;8.43;;;7.00;99.90;;;;;;5032615;28;20417;-63
2022/02/02 21:37:46;;;;;;;9.80;8.90;;;7.00;99.90;;;;;;5025740;28;20448;-62
2022/02/02 21:40:24;;;;;;;10.30;9.30;;;7.00;99.90;;;;;;5019509;28;21006;-62
2022/02/02 21:42:51;;;;;;;9.00;7.97;;;7.00;99.90;;;;;;5014643;28;20543;-61
2022/02/02 21:45:19;;;;;;;8.10;7.40;;;7.00;99.90;;;;;;5022712;28;20445;-61
2022/02/02 21:47:45;;;;;;;8.73;7.90;;;7.10;99.90;;;;;;5013876;28;20472;-62
2022/02/02 21:50:16;;;;;;;8.03;7.10;;;7.10;99.90;;;;;;5015075;28;20928;-62
2022/02/02 21:52:42;;;;;;;11.67;10.57;;;7.10;99.90;;;;;;5027508;28;20536;-62
2022/02/02 21:55:08;;;;;;;13.07;11.23;;;7.10;99.90;;;;;;5015276;28;20424;-62
2022/02/02 21:57:34;;;;;;;10.83;9.83;;;6.90;99.90;;;;;;5019950;28;20438;-62
2022/02/02 22:00:06;;;;;;;11.73;9.70;;;6.80;99.90;;;;;;5028941;28;20455;-62
2022/02/02 22:02:34;;;;;;;13.70;12.40;;;6.80;99.90;;;;;;5016047;28;20433;-62
2022/02/02 22:05:00;;;;;;;10.97;9.87;;;6.80;99.90;;;;;;5028703;28;20844;-62
2022/02/02 22:07:27;;;;;;;11.17;9.40;;;6.90;99.90;;;;;;5025646;28;20933;-62
2022/02/02 22:09:56;;;;;;;12.20;9.90;;;7.00;99.90;;;;;;5019369;28;20456;-61
2022/02/02 22:12:22;;;;;;;9.40;8.50;;;7.10;99.90;;;;;;5013284;28;20533;-62
2022/02/02 22:14:50;;;;;;;10.67;7.90;;;7.10;99.90;;;;;;5013152;28;20495;-62
2022/02/02 22:17:17;;;;;;;8.90;8.00;;;7.10;99.90;;;;;;5021334;28;20429;-62
2022/02/02 22:19:42;;;;;;;8.30;7.50;;;7.20;99.90;;;;;;5028096;28;20494;-62
2022/02/02 22:22:08;;;;;;;12.33;8.20;;;7.20;99.90;;;;;;5025295;28;20832;-62
2022/02/02 22:24:37;;;;;;;7.90;7.10;;;7.20;99.90;;;;;;5025717;28;20195;-62
2022/02/02 22:27:03;;;;;;;7.97;7.17;;;7.20;99.90;;;;;;5020885;28;20202;-62
2022/02/02 22:29:29;;;;;;;7.70;7.00;;;7.30;99.90;;;;;;5024611;28;20460;-62
2022/02/02 22:31:55;;;;;;;8.23;7.40;;;7.30;99.90;;;;;;5031702;28;20436;-62
2022/02/02 22:34:20;;;;;;;7.57;6.87;;;7.30;99.90;;;;;;5028362;28;20785;-62
2022/02/02 22:36:46;;;;;;;7.53;6.80;;;7.40;99.90;;;;;;5021956;28;20425;-62
2022/02/02 22:39:11;;;;;;;9.87;8.80;;;7.40;99.90;;;;;;5022915;28;20182;-62
2022/02/02 22:41:38;;;;;;;8.60;7.90;;;7.30;99.90;;;;;;5013120;28;20640;-62
2022/02/02 22:44:10;;;;;;;8.70;7.80;;;7.30;99.90;;;;;;5013692;28;20227;-61
2022/02/02 22:46:36;;;;;;;9.10;8.13;;;7.30;99.90;;;;;;5026825;28;20993;-61
2022/02/02 22:49:02;;;;;;;10.20;7.90;;;7.30;99.90;;;;;;5013034;28;20951;-61
2022/02/02 22:51:30;;;;;;;7.70;6.90;;;7.30;99.90;;;;;;5022724;28;20512;-61
2022/02/02 22:53:56;;;;;;;9.53;6.37;;;7.30;99.90;;;;;;5032102;28;20502;-62
2022/02/02 22:56:22;;;;;;;8.20;6.47;;;7.20;99.90;;;;;;5015266;28;20463;-61
2022/02/02 22:58:49;;;;;;;7.73;6.83;;;7.20;99.90;;;;;;5025151;28;20437;-62
2022/02/02 23:01:16;;;;;;;11.13;8.80;;;7.10;99.90;;;;;;5012317;28;20167;-62
2022/02/02 23:03:42;;;;;;;9.93;8.77;;;7.00;99.90;;;;;;5025781;28;20794;-62
2022/02/02 23:06:08;;;;;;;8.27;7.50;;;6.90;99.90;;;;;;5022779;28;20429;-62
2022/02/02 23:08:33;;;;;;;8.17;7.33;;;6.90;99.90;;;;;;5020832;28;20551;-61